LFTW/FNI METAR and TAF weather

Enter ICAO airport designator
Station Type Date Time Source
LFTW METAR 2021/05/14 23:30 UTC NOAA

LFTW 142330Z AUTO 29006KT 260V330 CAVOK 13/05 Q1014


Station Type Date Time Source
LFTW Decoded METAR 2021/05/14 23:30 UTC NOAA

Nimes / Garons, France (LFTW) 43-45N 004-25E 96M
May 14, 2021 - 07:30 PM EDT / 2021.05.14 2330 UTC
Wind: from the WNW (290 degrees) at 7 MPH (6 KT) (direction variable):0
Visibility: greater than 7 mile(s):0
Temperature: 55 F (13 C)
Dew Point: 41 F (5 C)
Relative Humidity: 58%
Pressure (altimeter): 29.94 in. Hg (1014 hPa)
ob: LFTW 142330Z AUTO 29006KT 260V330 CAVOK 13/05 Q1014
cycle: 23

Station Type Date Time Source
LFTW TAF 2021/05/14 19:12 UTC NOAA

TAF LFTW 141900Z 1419/1515 CNL

Example: see airport list